createdAt,value
2018-06-21T00:00:41.600Z,17.19
2018-06-21T00:03:10.862Z,17.13
2018-06-21T00:05:41.105Z,17.10
2018-06-21T00:08:10.605Z,17.08
2018-06-21T00:10:40.023Z,16.99
2018-06-21T00:13:09.259Z,17.03
2018-06-21T00:15:38.608Z,16.92
2018-06-21T00:18:07.997Z,16.94
2018-06-21T00:20:37.324Z,16.98
2018-06-21T00:23:06.718Z,16.79
2018-06-21T00:25:36.119Z,16.77
2018-06-21T00:28:05.640Z,16.83
2018-06-21T00:30:34.940Z,16.74
2018-06-21T00:33:04.522Z,16.74
2018-06-21T00:35:34.417Z,16.75
2018-06-21T00:38:03.702Z,16.70
2018-06-21T00:40:32.989Z,16.78
2018-06-21T00:43:02.330Z,16.63
2018-06-21T00:45:31.537Z,16.54
2018-06-21T00:48:00.895Z,16.49
2018-06-21T00:50:30.149Z,16.48
2018-06-21T00:52:59.533Z,16.49
2018-06-21T00:55:39.560Z,16.55
2018-06-21T00:58:08.944Z,16.37
2018-06-21T01:00:38.401Z,16.39
2018-06-21T01:03:07.750Z,16.42
2018-06-21T01:05:37.057Z,16.47
2018-06-21T01:08:06.359Z,16.39
2018-06-21T01:10:35.748Z,16.21
2018-06-21T01:13:05.870Z,16.23
2018-06-21T01:15:35.514Z,16.19
2018-06-21T01:18:04.879Z,16.06
2018-06-21T01:20:34.198Z,15.97
2018-06-21T01:23:03.471Z,16.02
2018-06-21T01:25:33.245Z,16.00
2018-06-21T01:28:02.468Z,16.03
2018-06-21T01:30:31.761Z,15.99
2018-06-21T01:33:00.913Z,15.91
2018-06-21T01:35:30.137Z,15.95
2018-06-21T01:37:59.627Z,16.11
2018-06-21T01:40:28.933Z,16.06
2018-06-21T01:42:58.243Z,15.91
2018-06-21T01:45:27.789Z,15.93
2018-06-21T01:47:57.231Z,15.93
2018-06-21T01:50:26.471Z,15.95
2018-06-21T01:52:55.908Z,15.87
2018-06-21T01:55:25.258Z,15.95
2018-06-21T01:57:55.133Z,15.88
2018-06-21T02:00:24.569Z,15.71
2018-06-21T02:02:53.741Z,15.58
2018-06-21T02:05:23.120Z,15.63
2018-06-21T02:07:53.113Z,15.66
2018-06-21T02:10:22.431Z,15.72
2018-06-21T02:12:51.825Z,15.72
2018-06-21T02:15:21.009Z,15.63
2018-06-21T02:17:50.789Z,15.57
2018-06-21T02:20:21.203Z,15.41
2018-06-21T02:22:50.589Z,15.49
2018-06-21T02:25:19.941Z,15.52
2018-06-21T02:27:49.405Z,15.52
2018-06-21T02:30:18.702Z,15.52
2018-06-21T02:32:47.976Z,15.52
2018-06-21T02:35:18.411Z,15.48
2018-06-21T02:37:47.935Z,15.56
2018-06-21T02:40:17.239Z,15.50
2018-06-21T02:42:46.919Z,15.46
2018-06-21T02:45:16.371Z,15.58
2018-06-21T02:47:45.634Z,15.45
2018-06-21T02:50:14.983Z,15.38
2018-06-21T02:52:44.402Z,15.28
2018-06-21T02:55:13.710Z,15.40
2018-06-21T02:57:43.055Z,15.27
2018-06-21T03:00:14.121Z,15.30
2018-06-21T03:02:43.553Z,15.17
2018-06-21T03:05:12.783Z,15.29
2018-06-21T03:07:42.045Z,15.24
2018-06-21T03:10:11.636Z,15.18
2018-06-21T03:12:41.415Z,15.13
2018-06-21T03:15:10.876Z,15.13
2018-06-21T03:17:40.122Z,15.10
2018-06-21T03:20:09.460Z,15.02
2018-06-21T03:22:40.261Z,15.03
2018-06-21T03:25:09.727Z,15.07
2018-06-21T03:27:38.939Z,15.15
2018-06-21T03:30:08.311Z,15.06
2018-06-21T03:32:37.658Z,15.04
2018-06-21T03:35:08.071Z,14.75
2018-06-21T03:37:37.607Z,14.76
2018-06-21T03:40:07.038Z,14.87
2018-06-21T03:42:36.261Z,15.06
2018-06-21T03:45:05.572Z,15.01
2018-06-21T03:47:35.094Z,15.04
2018-06-21T03:50:04.549Z,15.07
2018-06-21T03:52:34.015Z,15.09
2018-06-21T03:55:03.775Z,15.16
2018-06-21T03:57:33.433Z,15.10
2018-06-21T04:00:02.738Z,15.12
2018-06-21T04:02:32.080Z,15.06
2018-06-21T04:05:01.385Z,15.03
2018-06-21T04:07:30.444Z,14.80
2018-06-21T04:10:00.062Z,14.90
2018-06-21T04:12:29.494Z,15.05
2018-06-21T04:14:58.855Z,15.08
2018-06-21T04:17:28.238Z,15.14
2018-06-21T04:19:57.888Z,15.23
2018-06-21T04:22:27.209Z,15.17
2018-06-21T04:24:56.520Z,15.09
2018-06-21T04:27:25.729Z,14.99
2018-06-21T04:29:54.930Z,14.93
2018-06-21T04:32:24.303Z,15.09
2018-06-21T04:34:54.684Z,15.06
2018-06-21T04:37:24.010Z,15.17
2018-06-21T04:39:53.280Z,15.13
2018-06-21T04:42:22.590Z,15.32
2018-06-21T04:44:51.934Z,15.67
2018-06-21T04:47:21.481Z,15.95
2018-06-21T04:49:50.818Z,16.19
2018-06-21T04:52:20.186Z,16.49
2018-06-21T04:54:49.592Z,16.76
2018-06-21T04:57:18.936Z,16.67
2018-06-21T04:59:48.313Z,16.98
2018-06-21T05:02:17.605Z,17.21
2018-06-21T05:04:46.986Z,17.33
2018-06-21T05:07:16.373Z,17.61
2018-06-21T05:09:45.901Z,17.94
2018-06-21T05:12:16.028Z,18.02
2018-06-21T05:14:45.516Z,18.14
2018-06-21T05:17:14.970Z,18.31
2018-06-21T05:19:44.286Z,18.51
2018-06-21T05:22:13.821Z,18.69
2018-06-21T05:24:43.184Z,18.91
2018-06-21T05:27:12.520Z,18.94
2018-06-21T05:29:41.925Z,19.16
2018-06-21T05:32:11.353Z,19.37
2018-06-21T05:34:40.554Z,19.41
2018-06-21T05:37:09.967Z,19.37
2018-06-21T05:39:39.385Z,19.24
2018-06-21T05:42:08.718Z,19.32
2018-06-21T05:44:37.986Z,19.75
2018-06-21T05:47:07.128Z,19.63
2018-06-21T05:49:36.456Z,19.67
2018-06-21T05:52:05.756Z,19.65
2018-06-21T05:54:35.104Z,19.91
2018-06-21T05:57:05.591Z,20.10
2018-06-21T05:59:35.129Z,20.18
2018-06-21T06:02:05.235Z,20.19
2018-06-21T06:04:34.754Z,20.27
2018-06-21T06:07:04.593Z,20.51
2018-06-21T06:09:34.043Z,20.48
2018-06-21T06:12:03.509Z,20.42
2018-06-21T06:14:32.724Z,20.71
2018-06-21T06:17:02.473Z,20.62
2018-06-21T06:19:31.780Z,20.73
2018-06-21T06:22:01.052Z,20.86
2018-06-21T06:24:30.436Z,21.03
2018-06-21T06:26:59.849Z,21.35
2018-06-21T06:29:29.187Z,21.75
2018-06-21T06:31:58.457Z,21.46
2018-06-21T06:34:28.103Z,21.70
2018-06-21T06:36:57.906Z,21.26
2018-06-21T06:39:27.652Z,22.05
2018-06-21T06:41:58.142Z,21.81
2018-06-21T06:44:27.758Z,22.42
2018-06-21T06:46:57.212Z,21.98
2018-06-21T06:49:26.419Z,22.03
2018-06-21T06:51:55.752Z,21.86
2018-06-21T06:54:25.069Z,22.50
2018-06-21T06:56:54.382Z,22.65
2018-06-21T06:59:23.710Z,22.33
2018-06-21T07:01:53.037Z,23.39
2018-06-21T07:04:22.477Z,23.07
2018-06-21T07:06:51.808Z,23.73
2018-06-21T07:09:21.127Z,24.10
2018-06-21T07:11:50.420Z,23.74
2018-06-21T07:14:19.695Z,23.82
2018-06-21T07:16:49.375Z,23.00
2018-06-21T07:19:18.711Z,22.49
2018-06-21T07:21:48.033Z,22.86
2018-06-21T07:24:17.353Z,23.02
2018-06-21T07:26:46.694Z,22.96
2018-06-21T07:29:16.117Z,22.67
2018-06-21T07:31:46.039Z,22.85
2018-06-21T07:34:16.746Z,23.34
2018-06-21T07:36:46.136Z,23.38
2018-06-21T07:39:15.658Z,23.37
2018-06-21T07:41:44.914Z,23.00
2018-06-21T07:44:14.243Z,23.32
2018-06-21T07:46:43.577Z,23.34
2018-06-21T07:49:12.944Z,23.88
2018-06-21T07:51:42.594Z,23.72
2018-06-21T07:54:12.011Z,23.92
2018-06-21T07:56:41.734Z,24.05
2018-06-21T07:59:11.223Z,24.04
2018-06-21T08:01:40.593Z,24.29
2018-06-21T08:04:10.079Z,24.51
2018-06-21T08:06:39.525Z,24.73
2018-06-21T08:09:11.069Z,24.82
2018-06-21T08:11:40.611Z,25.35
2018-06-21T08:14:09.892Z,25.02
2018-06-21T08:16:40.300Z,24.99
2018-06-21T08:19:10.581Z,24.77
2018-06-21T08:21:39.882Z,25.33
2018-06-21T08:24:10.381Z,25.34
2018-06-21T08:26:41.584Z,25.10
2018-06-21T08:29:10.960Z,25.49
2018-06-21T08:31:40.373Z,25.30
2018-06-21T08:34:10.148Z,25.60
2018-06-21T08:36:39.627Z,25.57
2018-06-21T08:39:09.628Z,26.01
2018-06-21T08:41:39.106Z,25.79
2018-06-21T08:44:08.472Z,26.17
2018-06-21T08:46:37.744Z,26.23
2018-06-21T08:49:06.997Z,26.34
2018-06-21T08:51:36.344Z,26.51
2018-06-21T08:54:05.616Z,26.78
2018-06-21T08:56:34.933Z,26.75
2018-06-21T08:59:04.222Z,26.77
2018-06-21T09:01:33.575Z,26.78
2018-06-21T09:04:02.817Z,26.70
2018-06-21T09:06:32.424Z,27.12
2018-06-21T09:09:01.821Z,26.90
2018-06-21T09:11:31.316Z,26.76
2018-06-21T09:14:00.781Z,26.84
2018-06-21T09:16:31.357Z,27.15
2018-06-21T09:19:00.748Z,27.26
2018-06-21T09:21:30.166Z,27.18
2018-06-21T09:23:59.616Z,27.16
2018-06-21T09:26:29.090Z,27.03
2018-06-21T09:28:58.632Z,27.46
2018-06-21T09:31:28.145Z,27.64
2018-06-21T09:33:57.540Z,27.66
2018-06-21T09:36:27.179Z,27.99
2018-06-21T09:39:01.664Z,28.40
2018-06-21T09:41:36.018Z,28.22
2018-06-21T09:44:10.416Z,28.20
2018-06-21T09:46:44.924Z,28.05
2018-06-21T09:49:14.613Z,28.57
2018-06-21T09:51:43.893Z,28.74
2018-06-21T09:54:13.411Z,28.80
2018-06-21T09:56:42.750Z,28.93
2018-06-21T09:59:12.201Z,28.88
2018-06-21T10:01:41.806Z,29.00
2018-06-21T10:04:11.101Z,28.87
2018-06-21T10:06:40.952Z,29.05
2018-06-21T10:09:10.471Z,29.25
2018-06-21T10:11:39.924Z,29.23
2018-06-21T10:14:09.565Z,28.87
2018-06-21T10:16:39.547Z,29.33
2018-06-21T10:19:08.917Z,29.69
2018-06-21T10:21:38.288Z,29.50
2018-06-21T10:24:07.928Z,29.45
2018-06-21T10:26:37.226Z,29.33
2018-06-21T10:29:06.546Z,29.57
2018-06-21T10:31:36.063Z,29.33
2018-06-21T10:34:05.108Z,29.47
2018-06-21T10:36:34.619Z,29.51
2018-06-21T10:39:04.292Z,29.73
2018-06-21T10:41:33.678Z,29.69
2018-06-21T10:44:03.118Z,29.60
2018-06-21T10:46:32.499Z,29.83
2018-06-21T10:49:02.079Z,29.94
2018-06-21T10:51:31.432Z,29.89
2018-06-21T10:54:00.848Z,30.17
2018-06-21T10:56:31.711Z,30.33
2018-06-21T10:59:01.506Z,29.81
2018-06-21T11:01:31.344Z,30.12
2018-06-21T11:04:00.618Z,30.23
2018-06-21T11:06:30.213Z,30.31
2018-06-21T11:08:59.580Z,30.01
2018-06-21T11:11:28.817Z,30.22
2018-06-21T11:13:58.373Z,30.33
2018-06-21T11:16:27.903Z,30.42
2018-06-21T11:18:57.288Z,29.87
2018-06-21T11:21:28.342Z,29.59
2018-06-21T11:23:58.804Z,29.20
2018-06-21T11:26:28.263Z,29.25
2018-06-21T11:28:57.620Z,29.57
2018-06-21T11:31:26.889Z,29.64
2018-06-21T11:33:56.468Z,29.82
2018-06-21T11:36:26.230Z,29.38
2018-06-21T11:38:55.653Z,29.11
2018-06-21T11:41:24.928Z,29.29
2018-06-21T11:43:56.061Z,29.25
2018-06-21T11:46:25.509Z,29.18
2018-06-21T11:48:54.915Z,29.22
2018-06-21T11:51:24.230Z,29.43
2018-06-21T11:53:53.583Z,29.62
2018-06-21T11:56:23.194Z,30.18
2018-06-21T11:58:52.538Z,30.47
2018-06-21T12:01:22.118Z,30.76
2018-06-21T12:03:51.409Z,31.16
2018-06-21T12:06:20.885Z,31.21
2018-06-21T12:08:50.329Z,30.92
2018-06-21T12:11:19.847Z,30.18
2018-06-21T12:13:49.104Z,30.67
2018-06-21T12:16:18.429Z,30.87
2018-06-21T12:18:47.808Z,30.60
2018-06-21T12:21:17.164Z,30.72
2018-06-21T12:23:47.252Z,30.99
2018-06-21T12:26:17.177Z,31.17
2018-06-21T12:28:47.380Z,30.57
2018-06-21T12:31:16.723Z,30.18
2018-06-21T12:33:46.430Z,30.57
2018-06-21T12:36:16.308Z,30.71
2018-06-21T12:38:45.762Z,30.64
2018-06-21T12:41:15.178Z,30.52
2018-06-21T12:43:44.572Z,30.18
2018-06-21T12:46:14.021Z,30.03
2018-06-21T12:48:43.223Z,29.73
2018-06-21T12:51:12.647Z,29.51
2018-06-21T12:53:42.267Z,29.59
2018-06-21T12:56:11.703Z,29.68
2018-06-21T12:58:41.730Z,29.67
2018-06-21T13:01:11.810Z,29.77
2018-06-21T13:03:42.314Z,30.47
2018-06-21T13:06:11.734Z,30.60
2018-06-21T13:08:51.965Z,30.70
2018-06-21T13:11:38.916Z,30.80
2018-06-21T13:14:18.954Z,30.09
2018-06-21T13:16:48.150Z,30.16
2018-06-21T13:19:17.505Z,30.28
2018-06-21T13:21:46.833Z,30.80
2018-06-21T13:24:16.357Z,31.09
2018-06-21T13:26:45.784Z,31.02
2018-06-21T13:29:15.183Z,30.82
2018-06-21T13:31:44.809Z,30.59
2018-06-21T13:34:14.217Z,30.71
2018-06-21T13:36:43.408Z,30.85
2018-06-21T13:39:12.718Z,30.82
2018-06-21T13:41:41.976Z,31.15
2018-06-21T13:44:11.347Z,30.53
2018-06-21T13:46:40.733Z,30.05
2018-06-21T13:49:10.268Z,30.09
2018-06-21T13:51:39.713Z,29.57
2018-06-21T13:54:09.245Z,29.35
2018-06-21T13:56:38.500Z,29.81
2018-06-21T13:59:07.720Z,30.37
2018-06-21T14:01:37.083Z,30.07
2018-06-21T14:04:06.472Z,30.06
2018-06-21T14:06:35.820Z,29.39
2018-06-21T14:09:06.635Z,29.43
2018-06-21T14:11:36.076Z,29.07
2018-06-21T14:14:05.508Z,29.25
2018-06-21T14:16:34.997Z,29.33
2018-06-21T14:19:04.573Z,29.32
2018-06-21T14:21:33.999Z,29.27
2018-06-21T14:24:03.267Z,29.05
2018-06-21T14:26:32.969Z,28.94
2018-06-21T14:29:02.452Z,28.77
2018-06-21T14:31:32.648Z,28.52
2018-06-21T14:34:01.984Z,28.54
2018-06-21T14:36:32.013Z,28.22
2018-06-21T14:39:01.643Z,28.07
2018-06-21T14:41:31.279Z,28.34
2018-06-21T14:44:00.628Z,28.32
2018-06-21T14:46:30.035Z,28.56
2018-06-21T14:48:59.543Z,28.80
2018-06-21T14:51:28.778Z,29.03
2018-06-21T14:53:58.300Z,28.97
2018-06-21T14:56:27.690Z,28.80
2018-06-21T14:58:57.143Z,28.66
2018-06-21T15:01:26.409Z,28.61
2018-06-21T15:03:56.055Z,28.22
2018-06-21T15:06:25.389Z,28.27
2018-06-21T15:08:54.781Z,28.14
2018-06-21T15:11:24.308Z,28.31
2018-06-21T15:13:53.650Z,28.22
2018-06-21T15:16:24.074Z,27.91
2018-06-21T15:18:54.008Z,27.88
2018-06-21T15:21:23.359Z,27.92
2018-06-21T15:23:52.661Z,27.78
2018-06-21T15:26:22.060Z,27.77
2018-06-21T15:28:51.456Z,28.00
2018-06-21T15:31:20.764Z,27.95
2018-06-21T15:33:50.095Z,27.87
2018-06-21T15:36:19.428Z,27.96
2018-06-21T15:38:48.896Z,27.69
2018-06-21T15:41:19.294Z,27.68
2018-06-21T15:43:48.796Z,27.80
2018-06-21T15:46:19.109Z,27.70
2018-06-21T15:48:48.580Z,27.76
2018-06-21T15:51:17.529Z,27.87
2018-06-21T15:53:46.583Z,27.65
2018-06-21T15:56:15.603Z,27.90
2018-06-21T15:58:44.716Z,28.10
2018-06-21T16:01:13.783Z,28.15
2018-06-21T16:03:42.955Z,28.25
2018-06-21T16:06:12.015Z,28.06
2018-06-21T16:08:41.177Z,27.91
2018-06-21T16:11:10.219Z,27.88
2018-06-21T16:13:39.235Z,27.72
2018-06-21T16:16:08.371Z,27.68
2018-06-21T16:18:37.360Z,27.76
2018-06-21T16:21:06.607Z,27.62
2018-06-21T16:23:36.130Z,27.56
2018-06-21T16:26:05.624Z,27.20
2018-06-21T16:28:35.081Z,26.94
2018-06-21T16:31:04.818Z,26.66
2018-06-21T16:33:34.248Z,26.41
2018-06-21T16:36:03.889Z,26.35
2018-06-21T16:38:33.406Z,26.32
2018-06-21T16:41:02.967Z,26.27
2018-06-21T16:43:32.416Z,26.32
2018-06-21T16:46:01.719Z,26.47
2018-06-21T16:48:30.971Z,26.22
2018-06-21T16:51:00.342Z,26.27
2018-06-21T16:53:29.665Z,26.19
2018-06-21T16:55:59.140Z,26.09
2018-06-21T16:58:28.552Z,26.11
2018-06-21T17:00:57.921Z,26.02
2018-06-21T17:03:27.423Z,26.03
2018-06-21T17:05:57.063Z,25.86
2018-06-21T17:08:26.331Z,25.99
2018-06-21T17:10:56.719Z,25.81
2018-06-21T17:13:26.085Z,25.80
2018-06-21T17:15:56.651Z,25.72
2018-06-21T17:18:26.047Z,25.53
2018-06-21T17:20:55.764Z,24.83
2018-06-21T17:23:24.883Z,24.23
2018-06-21T17:25:54.407Z,23.42
2018-06-21T17:28:24.296Z,23.24
2018-06-21T17:30:53.681Z,23.11
2018-06-21T17:33:23.002Z,22.86
2018-06-21T17:35:52.386Z,22.33
2018-06-21T17:38:21.648Z,22.18
2018-06-21T17:40:51.015Z,22.17
2018-06-21T17:43:20.516Z,22.34
2018-06-21T17:45:49.519Z,22.35
2018-06-21T17:48:18.918Z,22.26
2018-06-21T17:50:48.393Z,22.12
2018-06-21T17:53:18.044Z,22.03
2018-06-21T17:55:47.344Z,21.68
2018-06-21T17:58:16.790Z,21.99
2018-06-21T18:00:46.270Z,21.82
2018-06-21T18:03:15.615Z,21.87
2018-06-21T18:05:44.877Z,21.70
2018-06-21T18:08:14.254Z,21.20
2018-06-21T18:10:43.607Z,21.40
2018-06-21T18:13:12.972Z,21.30
2018-06-21T18:15:42.403Z,21.51
2018-06-21T18:18:11.924Z,21.25
2018-06-21T18:20:41.480Z,21.27
2018-06-21T18:23:11.130Z,20.96
2018-06-21T18:25:40.570Z,20.88
2018-06-21T18:28:11.256Z,20.95
2018-06-21T18:30:41.241Z,20.99
2018-06-21T18:33:10.657Z,21.01
2018-06-21T18:35:42.575Z,20.89
2018-06-21T18:38:12.145Z,20.96
2018-06-21T18:40:42.974Z,20.72
2018-06-21T18:43:13.171Z,20.87
2018-06-21T18:45:42.613Z,20.82
2018-06-21T18:48:12.904Z,20.79
2018-06-21T18:50:43.288Z,20.90
2018-06-21T18:53:14.936Z,20.73
2018-06-21T18:55:44.383Z,20.89
2018-06-21T18:58:13.986Z,20.99
2018-06-21T19:00:43.448Z,20.68
2018-06-21T19:03:13.161Z,20.36
2018-06-21T19:05:42.799Z,20.55
2018-06-21T19:08:17.648Z,20.65
2018-06-21T19:10:52.506Z,20.71
2018-06-21T19:13:21.984Z,20.64
2018-06-21T19:15:52.194Z,20.48
2018-06-21T19:18:22.035Z,20.48
2018-06-21T19:20:51.418Z,20.41
2018-06-21T19:23:21.003Z,20.36
2018-06-21T19:25:51.599Z,20.41
2018-06-21T19:28:21.252Z,20.46
2018-06-21T19:30:50.882Z,20.31
2018-06-21T19:33:20.686Z,20.38
2018-06-21T19:35:51.119Z,20.28
2018-06-21T19:38:20.602Z,20.32
2018-06-21T19:40:51.588Z,20.48
2018-06-21T19:43:21.116Z,20.59
2018-06-21T19:45:50.792Z,20.21
2018-06-21T19:48:20.092Z,20.44
2018-06-21T19:50:51.317Z,20.31
2018-06-21T19:53:20.916Z,20.33
2018-06-21T19:55:50.819Z,20.38
2018-06-21T19:58:20.552Z,20.36
2018-06-21T20:00:52.117Z,20.36
2018-06-21T20:03:22.541Z,20.33
2018-06-21T20:05:53.507Z,20.06
2018-06-21T20:08:24.824Z,19.90
2018-06-21T20:10:59.175Z,19.99
2018-06-21T20:13:30.386Z,20.01
2018-06-21T20:15:59.800Z,20.02
2018-06-21T20:18:31.332Z,19.91
2018-06-21T20:21:01.062Z,19.91
2018-06-21T20:23:31.076Z,19.83
2018-06-21T20:26:00.589Z,19.99
2018-06-21T20:28:31.009Z,19.91
2018-06-21T20:31:00.483Z,19.99
2018-06-21T20:33:29.920Z,19.93
2018-06-21T20:35:59.698Z,19.87
2018-06-21T20:38:29.178Z,19.58
2018-06-21T20:40:59.973Z,19.48
2018-06-21T20:43:29.486Z,19.87
2018-06-21T20:45:59.034Z,19.86
2018-06-21T20:48:28.453Z,19.68
2018-06-21T20:50:58.383Z,19.50
2018-06-21T20:53:29.139Z,19.31
2018-06-21T20:55:58.602Z,19.42
2018-06-21T20:58:28.127Z,19.47
2018-06-21T21:00:57.651Z,19.43
2018-06-21T21:03:27.332Z,19.42
2018-06-21T21:05:56.837Z,19.45
2018-06-21T21:08:26.678Z,19.51
2018-06-21T21:10:56.025Z,19.54
2018-06-21T21:13:25.681Z,19.36
2018-06-21T21:15:55.194Z,19.31
2018-06-21T21:18:24.525Z,19.32
2018-06-21T21:20:53.732Z,19.25
2018-06-21T21:23:23.005Z,19.49
2018-06-21T21:25:53.320Z,19.40
2018-06-21T21:28:22.774Z,19.22
2018-06-21T21:30:52.056Z,19.03
2018-06-21T21:33:21.394Z,19.17
2018-06-21T21:35:50.638Z,19.24
2018-06-21T21:38:19.951Z,19.23
2018-06-21T21:40:49.160Z,19.23
2018-06-21T21:43:18.566Z,19.20
2018-06-21T21:45:47.888Z,19.10
2018-06-21T21:48:17.201Z,19.10
2018-06-21T21:50:46.847Z,19.16
2018-06-21T21:53:16.354Z,19.19
2018-06-21T21:55:45.805Z,19.26
2018-06-21T21:58:15.279Z,19.28
2018-06-21T22:00:47.843Z,19.26
2018-06-21T22:03:17.375Z,19.26
2018-06-21T22:05:46.788Z,19.04
2018-06-21T22:08:16.119Z,18.95
2018-06-21T22:10:46.181Z,19.05
2018-06-21T22:13:16.000Z,19.18
2018-06-21T22:15:45.565Z,19.10
2018-06-21T22:18:15.096Z,19.18
2018-06-21T22:20:44.655Z,19.18
2018-06-21T22:23:14.126Z,19.03
2018-06-21T22:25:44.281Z,19.11
2018-06-21T22:28:13.691Z,19.04
2018-06-21T22:30:43.200Z,18.97
2018-06-21T22:33:12.635Z,18.97
2018-06-21T22:35:42.222Z,19.08
2018-06-21T22:38:11.912Z,18.99
2018-06-21T22:40:41.287Z,19.05
2018-06-21T22:43:10.573Z,19.14
2018-06-21T22:45:39.974Z,18.90
2018-06-21T22:48:10.129Z,18.76
2018-06-21T22:50:39.846Z,18.79
2018-06-21T22:53:09.217Z,18.77
2018-06-21T22:55:38.566Z,18.75
2018-06-21T22:58:08.042Z,18.83
2018-06-21T23:00:37.343Z,18.74
2018-06-21T23:03:06.568Z,18.71
2018-06-21T23:05:35.913Z,18.51
2018-06-21T23:08:05.223Z,18.74
2018-06-21T23:10:34.418Z,18.77
2018-06-21T23:13:03.804Z,18.84
2018-06-21T23:15:33.283Z,18.79
2018-06-21T23:18:02.541Z,18.80
2018-06-21T23:20:31.919Z,18.76
2018-06-21T23:23:01.249Z,18.69
2018-06-21T23:25:30.544Z,18.66
2018-06-21T23:27:59.794Z,18.54
2018-06-21T23:30:29.235Z,18.53
2018-06-21T23:32:58.829Z,18.45
2018-06-21T23:35:28.086Z,18.61
2018-06-21T23:37:57.449Z,18.62
2018-06-21T23:40:26.728Z,18.69
2018-06-21T23:42:56.047Z,18.73
2018-06-21T23:45:25.458Z,18.67
2018-06-21T23:47:54.712Z,18.67
2018-06-21T23:50:24.061Z,18.68
2018-06-21T23:52:53.471Z,18.69
2018-06-21T23:55:22.839Z,18.68
2018-06-21T23:57:52.186Z,18.50
